Time;durP1;ratioP1;P1;durP2;ratioP2;P2;SDS_P1;SDS_P2;PMS_P1;PMS_P2;Temp;Humidity;BMP_temperature;BMP_pressure;BME280_temperature;BME280_humidity;BME280_pressure;Samples;Min_cycle;Max_cycle;Signal;HPM_P1;HPM_P2
2023/03/28 00:00:22;;;;;;;15.83;2.73;;;1.70;99.90;;;;;;5071429;28;20034;-50
2023/03/28 00:02:47;;;;;;;13.87;2.77;;;1.70;99.90;;;;;;5071610;28;20028;-50
2023/03/28 00:05:13;;;;;;;15.67;2.80;;;1.60;99.90;;;;;;5071301;28;20477;-52
2023/03/28 00:07:39;;;;;;;16.47;2.87;;;1.60;99.90;;;;;;5071173;28;20032;-52
2023/03/28 00:10:06;;;;;;;16.47;2.97;;;1.60;99.90;;;;;;5071141;28;20036;-53
2023/03/28 00:12:32;;;;;;;11.60;2.70;;;1.70;99.90;;;;;;5071405;28;20107;-48
2023/03/28 00:14:59;;;;;;;10.13;2.60;;;1.60;99.90;;;;;;5071337;28;20434;-49
2023/03/28 00:17:25;;;;;;;12.70;2.47;;;1.60;99.90;;;;;;5071330;28;20205;-48
2023/03/28 00:19:52;;;;;;;13.30;2.50;;;1.60;99.90;;;;;;5071068;28;20023;-51
2023/03/28 00:22:19;;;;;;;11.30;2.40;;;1.60;99.90;;;;;;5070960;28;20036;-51
2023/03/28 00:24:46;;;;;;;11.53;2.33;;;1.60;99.90;;;;;;5070724;28;20093;-52
2023/03/28 00:27:12;;;;;;;15.50;3.20;;;1.50;99.90;;;;;;5070701;28;20040;-49
2023/03/28 00:29:37;;;;;;;13.90;2.60;;;1.60;99.90;;;;;;5070958;28;20028;-48
2023/03/28 00:32:04;;;;;;;14.37;3.40;;;1.50;99.90;;;;;;5071016;28;20528;-51
2023/03/28 00:34:30;;;;;;;12.73;2.93;;;1.50;99.90;;;;;;5070691;28;20089;-51
2023/03/28 00:36:57;;;;;;;15.83;3.80;;;1.50;99.90;;;;;;5052490;28;20043;-53
2023/03/28 00:39:23;;;;;;;17.33;3.23;;;1.30;99.90;;;;;;5070934;28;20381;-55
2023/03/28 00:41:49;;;;;;;22.33;3.97;;;1.30;99.90;;;;;;5052814;28;20032;-54
2023/03/28 00:44:45;;;;;;;16.03;3.50;;;1.20;99.90;;;;;;5070608;28;20031;-54
2023/03/28 00:47:14;;;;;;;15.00;3.90;;;1.00;99.90;;;;;;5052572;28;20044;-51
2023/03/28 00:49:40;;;;;;;20.85;3.58;;;0.90;99.90;;;;;;5070430;28;20036;-49
2023/03/28 00:52:07;;;;;;;14.80;3.40;;;0.70;99.90;;;;;;5070698;28;20036;-51
2023/03/28 00:54:39;;;;;;;15.97;3.73;;;0.70;99.90;;;;;;5052450;28;20048;-48
2023/03/28 00:57:08;;;;;;;14.00;3.47;;;0.60;99.90;;;;;;5070319;28;20040;-52
2023/03/28 00:59:36;;;;;;;13.98;3.45;;;0.60;99.90;;;;;;5052263;28;20105;-50
2023/03/28 01:02:02;;;;;;;14.43;3.53;;;0.40;99.90;;;;;;5052509;28;20056;-48
2023/03/28 01:04:35;;;;;;;17.57;4.13;;;0.30;99.90;;;;;;5052132;28;20111;-48
2023/03/28 01:07:03;;;;;;;18.37;3.83;;;0.40;99.90;;;;;;5051773;28;20382;-53
2023/03/28 01:09:34;;;;;;;13.83;3.67;;;0.40;99.90;;;;;;5052392;28;20461;-49
2023/03/28 01:12:00;;;;;;;15.10;3.20;;;0.40;99.90;;;;;;5052598;28;20028;-50
2023/03/28 01:14:28;;;;;;;15.20;3.80;;;0.30;99.90;;;;;;5070142;28;20108;-48
2023/03/28 01:16:57;;;;;;;10.55;2.38;;;0.30;99.90;;;;;;5052097;28;20041;-49
2023/03/28 01:20:05;;;;;;;16.55;3.95;;;0.30;99.90;;;;;;5052329;28;20028;-49
2023/03/28 01:22:43;;;;;;;14.67;3.80;;;0.20;99.90;;;;;;5052321;28;20424;-51
2023/03/28 01:25:17;;;;;;;16.60;3.63;;;0.20;99.90;;;;;;5052082;28;20043;-49
2023/03/28 01:28:04;;;;;;;13.37;3.60;;;0.20;99.90;;;;;;5052049;28;20473;-50
2023/03/28 01:30:52;;;;;;;11.47;3.30;;;0.20;99.90;;;;;;5070086;28;20039;-47
2023/03/28 01:33:48;;;;;;;16.93;3.77;;;0.10;99.90;;;;;;5070028;28;20040;-53
2023/03/28 01:36:32;;;;;;;13.13;3.03;;;0.00;99.90;;;;;;5052175;28;20111;-48
2023/03/28 01:39:08;;;;;;;11.70;3.53;;;-0.10;99.90;;;;;;5069948;28;20537;-49
2023/03/28 01:41:47;;;;;;;14.73;3.37;;;-0.10;99.90;;;;;;5051955;28;20116;-50
2023/03/28 01:44:25;;;;;;;;;;;0.00;99.90;;;;;;5052437;28;20025;-50
2023/03/28 01:47:10;;;;;;;12.13;3.33;;;-0.10;99.90;;;;;;5051873;28;19913;-49
2023/03/28 01:50:04;;;;;;;17.13;3.87;;;-0.10;99.90;;;;;;5051904;28;20040;-52
2023/03/28 01:52:50;;;;;;;15.03;3.60;;;-0.20;99.90;;;;;;5051986;28;20037;-49
2023/03/28 01:55:17;;;;;;;14.37;3.83;;;-0.20;99.90;;;;;;5051730;28;20036;-47
2023/03/28 01:57:56;;;;;;;13.90;3.90;;;-0.20;99.90;;;;;;5051486;28;20508;-48
2023/03/28 02:00:33;;;;;;;19.20;3.78;;;-0.20;99.90;;;;;;5051767;28;20090;-53
2023/03/28 02:03:10;;;;;;;14.13;3.43;;;-0.20;99.90;;;;;;5069994;28;20536;-46
2023/03/28 02:05:42;;;;;;;19.37;3.60;;;-0.20;99.90;;;;;;5069757;28;20078;-46
2023/03/28 02:08:14;;;;;;;14.40;3.57;;;-0.20;99.90;;;;;;5051706;28;20025;-49
2023/03/28 02:10:46;;;;;;;17.73;3.50;;;-0.20;99.90;;;;;;5051580;28;20048;-47
2023/03/28 02:13:28;;;;;;;17.17;3.70;;;-0.30;99.90;;;;;;5051641;28;20062;-49
2023/03/28 02:16:04;;;;;;;21.85;3.97;;;-0.50;99.90;;;;;;5051913;28;20033;-49
2023/03/28 02:19:00;;;;;;;13.90;3.57;;;-0.60;99.90;;;;;;5055243;28;20029;-48
2023/03/28 02:22:15;;;;;;;13.90;4.10;;;-0.60;99.90;;;;;;5034542;28;20036;-47
2023/03/28 02:24:59;;;;;;;12.07;3.37;;;-0.60;99.90;;;;;;5072899;28;20082;-50
2023/03/28 02:27:51;;;;;;;13.87;3.40;;;-0.60;99.90;;;;;;5055022;28;20032;-48
2023/03/28 02:30:22;;;;;;;11.93;3.43;;;-0.50;99.90;;;;;;5073086;28;20028;-47
2023/03/28 02:32:49;;;;;;;12.80;3.03;;;-0.50;99.90;;;;;;5073121;28;20028;-46
2023/03/28 02:35:24;;;;;;;14.13;3.70;;;-0.60;99.90;;;;;;5054925;28;20070;-53
2023/03/28 02:38:24;;;;;;;12.83;3.53;;;-0.60;99.90;;;;;;5054512;28;20472;-46
2023/03/28 02:41:03;;;;;;;12.87;3.77;;;-0.70;99.90;;;;;;5054842;28;20029;-46
2023/03/28 02:43:44;;;;;;;14.43;3.50;;;-0.80;99.90;;;;;;5073144;28;20528;-46
2023/03/28 02:46:26;;;;;;;17.27;4.00;;;-0.70;99.90;;;;;;5072777;28;20048;-51
2023/03/28 02:49:01;;;;;;;20.43;4.30;;;-0.70;99.90;;;;;;5054703;28;20086;-46
2023/03/28 02:51:33;;;;;;;13.97;4.03;;;-0.80;99.90;;;;;;5054647;28;20449;-50
2023/03/28 02:54:14;;;;;;;16.63;4.40;;;-0.80;99.90;;;;;;5072507;28;20032;-50
2023/03/28 02:56:51;;;;;;;16.13;4.20;;;-0.80;99.90;;;;;;5054607;28;20028;-49
2023/03/28 02:59:39;;;;;;;13.93;3.87;;;-0.80;99.90;;;;;;5054353;28;20112;-50
2023/03/28 03:02:07;;;;;;;18.70;5.10;;;-0.80;99.90;;;;;;5072877;28;20028;-49
2023/03/28 03:04:33;;;;;;;15.17;4.20;;;-0.80;99.90;;;;;;5072289;28;20161;-49
2023/03/28 03:07:02;;;;;;;14.50;3.97;;;-0.70;99.90;;;;;;5054144;28;20055;-49
2023/03/28 03:09:29;;;;;;;18.37;5.87;;;-0.70;99.90;;;;;;5054314;28;20124;-50
2023/03/28 03:11:55;;;;;;;14.97;4.13;;;-0.70;99.90;;;;;;5054291;28;20689;-51
2023/03/28 03:14:21;;;;;;;12.90;4.20;;;-0.80;99.90;;;;;;5054094;28;20566;-48
2023/03/28 03:16:47;;;;;;;15.53;4.67;;;-0.90;99.90;;;;;;5053949;28;20028;-49
2023/03/28 03:19:18;;;;;;;14.43;4.80;;;-0.90;99.90;;;;;;5054383;28;20068;-51
2023/03/28 03:21:44;;;;;;;14.60;4.43;;;-0.90;99.90;;;;;;5054035;28;20025;-48
2023/03/28 03:24:10;;;;;;;22.07;5.60;;;-0.90;99.90;;;;;;5053840;28;20024;-50
2023/03/28 03:26:40;;;;;;;18.43;5.57;;;-0.90;99.90;;;;;;5053894;28;20036;-48
2023/03/28 03:29:08;;;;;;;19.90;5.57;;;-0.90;99.90;;;;;;5052915;28;20025;-50
2023/03/28 03:31:35;;;;;;;15.20;4.93;;;-0.90;99.90;;;;;;5054037;28;20036;-47
2023/03/28 03:34:16;;;;;;;16.03;5.27;;;-0.90;99.90;;;;;;5071757;28;20647;-51
2023/03/28 03:36:48;;;;;;;15.07;5.67;;;-1.00;99.90;;;;;;5053580;28;20082;-49
2023/03/28 03:39:15;;;;;;;17.60;4.80;;;-1.10;99.90;;;;;;5053653;28;20063;-48
2023/03/28 03:41:41;;;;;;;11.60;4.33;;;-1.10;99.90;;;;;;5053795;28;20430;-48
2023/03/28 03:44:08;;;;;;;16.07;5.03;;;-1.00;99.90;;;;;;5053511;28;20031;-50
2023/03/28 03:46:35;;;;;;;15.70;4.73;;;-1.00;99.90;;;;;;5053447;28;20043;-47
2023/03/28 03:49:01;;;;;;;12.30;4.80;;;-0.90;99.90;;;;;;5053473;28;20032;-49
2023/03/28 03:51:27;;;;;;;13.90;4.77;;;-0.90;99.90;;;;;;5071669;28;20025;-52
2023/03/28 03:53:57;;;;;;;13.80;4.83;;;-0.90;99.90;;;;;;5071258;28;20024;-51
2023/03/28 03:56:30;;;;;;;23.37;5.70;;;-0.80;99.90;;;;;;5053239;28;20116;-50
2023/03/28 03:58:57;;;;;;;11.93;4.60;;;-0.80;99.90;;;;;;5053278;28;20074;-50
2023/03/28 04:01:31;;;;;;;19.83;5.60;;;-0.80;99.90;;;;;;5053399;28;20488;-46
2023/03/28 04:04:10;;;;;;;20.13;6.63;;;-0.70;99.90;;;;;;5053157;28;20032;-47
2023/03/28 04:06:58;;;;;;;11.87;5.00;;;-0.80;99.90;;;;;;5053137;28;20035;-47
2023/03/28 04:09:27;;;;;;;19.20;5.70;;;-0.80;99.90;;;;;;5053124;28;20350;-48
2023/03/28 04:11:59;;;;;;;19.03;5.70;;;-0.80;99.90;;;;;;5053142;28;20029;-49
2023/03/28 04:14:25;;;;;;;17.70;5.97;;;-0.80;99.90;;;;;;5053009;28;20050;-53
2023/03/28 04:17:03;;;;;;;14.07;5.90;;;-0.90;99.90;;;;;;5052799;28;20028;-50
2023/03/28 04:19:29;;;;;;;20.07;5.50;;;-0.80;99.90;;;;;;5052882;28;20028;-51
2023/03/28 04:21:58;;;;;;;16.50;5.40;;;-0.90;99.90;;;;;;5052861;28;20024;-47
2023/03/28 04:24:24;;;;;;;17.33;5.73;;;-0.90;99.90;;;;;;5052763;28;20508;-47
2023/03/28 04:27:08;;;;;;;15.70;6.90;;;-1.00;99.90;;;;;;5070741;28;20055;-49
2023/03/28 04:29:35;;;;;;;18.87;6.60;;;-1.00;99.90;;;;;;5052958;28;20036;-49
2023/03/28 04:32:25;;;;;;;22.53;5.90;;;-1.00;99.90;;;;;;5052686;28;20059;-49
2023/03/28 04:35:04;;;;;;;21.63;5.93;;;-1.00;99.90;;;;;;5052612;28;20066;-50
2023/03/28 04:37:30;;;;;;;18.57;5.67;;;-1.00;99.90;;;;;;5052409;28;20500;-49
2023/03/28 04:40:01;;;;;;;20.07;7.93;;;-1.00;99.90;;;;;;5052362;28;20417;-49
2023/03/28 04:42:46;;;;;;;20.37;8.87;;;-1.00;99.90;;;;;;5070491;28;20051;-49
2023/03/28 04:45:14;;;;;;;41.47;20.90;;;-1.00;99.90;;;;;;5052424;28;20054;-50
2023/03/28 04:47:41;;;;;;;27.23;13.77;;;-1.00;99.90;;;;;;5052324;28;20112;-50
2023/03/28 04:50:14;;;;;;;24.20;11.00;;;-1.00;99.90;;;;;;5052421;28;20028;-48
2023/03/28 04:52:40;;;;;;;20.63;9.20;;;-1.00;99.90;;;;;;5052478;28;20032;-47
2023/03/28 04:55:06;;;;;;;18.07;7.87;;;-1.00;99.90;;;;;;5070204;28;20442;-49
2023/03/28 04:57:35;;;;;;;22.00;7.60;;;-1.00;99.90;;;;;;5052099;28;20515;-53
2023/03/28 05:00:08;;;;;;;20.40;10.07;;;-0.90;99.90;;;;;;5052236;28;20063;-53
2023/03/28 05:02:54;;;;;;;28.17;14.50;;;-0.90;99.90;;;;;;5070538;28;20557;-49
2023/03/28 05:05:21;;;;;;;25.63;11.67;;;-0.90;99.90;;;;;;5052082;28;20119;-49
2023/03/28 05:07:47;;;;;;;22.87;9.57;;;-1.00;99.90;;;;;;5052144;28;20469;-51
2023/03/28 05:10:14;;;;;;;26.53;10.93;;;-1.00;99.90;;;;;;5052291;28;20040;-50
2023/03/28 05:12:40;;;;;;;19.67;7.33;;;-1.10;99.90;;;;;;5052351;28;20386;-47
2023/03/28 05:15:06;;;;;;;25.67;11.63;;;-1.10;99.90;;;;;;5052149;28;20161;-53
2023/03/28 05:17:42;;;;;;;21.50;8.63;;;-1.10;99.90;;;;;;5051993;28;20029;-50
2023/03/28 05:20:27;;;;;;;17.53;7.80;;;-1.10;99.90;;;;;;5070084;28;20396;-49
2023/03/28 05:22:56;;;;;;;20.50;7.80;;;-1.10;99.90;;;;;;5052174;28;20029;-51
2023/03/28 05:25:23;;;;;;;19.70;8.90;;;-1.10;99.90;;;;;;5070137;28;20032;-50
2023/03/28 05:27:48;;;;;;;18.30;8.27;;;-1.00;99.90;;;;;;5051975;28;20025;-53
2023/03/28 05:30:15;;;;;;;17.77;7.63;;;-0.90;99.90;;;;;;5052079;28;20103;-50
2023/03/28 05:32:42;;;;;;;21.57;8.33;;;-0.90;99.90;;;;;;5052106;28;20028;-48
2023/03/28 05:35:12;;;;;;;17.80;7.40;;;-0.90;99.90;;;;;;5051843;28;20028;-51
2023/03/28 05:37:38;;;;;;;17.33;7.50;;;-0.80;99.90;;;;;;5069807;28;20032;-50
2023/03/28 05:40:06;;;;;;;21.53;7.97;;;-0.80;99.90;;;;;;5070106;28;20028;-51
2023/03/28 05:42:33;;;;;;;11.95;5.78;;;-0.70;99.90;;;;;;5052081;28;20029;-52
2023/03/28 05:45:05;;;;;;;21.00;7.10;;;-0.70;99.90;;;;;;5051953;28;20031;-48
2023/03/28 05:47:55;;;;;;;13.17;6.27;;;-0.60;99.90;;;;;;5051881;28;20029;-49
2023/03/28 05:50:23;;;;;;;22.37;7.77;;;-0.60;99.90;;;;;;5051807;28;20033;-51
2023/03/28 05:52:50;;;;;;;21.13;6.70;;;-0.50;99.90;;;;;;5054552;28;20503;-51
2023/03/28 05:55:16;;;;;;;22.10;7.10;;;-0.40;99.90;;;;;;5073921;28;20028;-48
2023/03/28 05:57:43;;;;;;;22.87;7.57;;;-0.30;99.90;;;;;;5055210;28;20039;-51
2023/03/28 06:00:12;;;;;;;14.13;6.60;;;-0.30;99.90;;;;;;5055489;28;20036;-52
2023/03/28 06:02:44;;;;;;;13.13;6.30;;;-0.30;99.90;;;;;;5073534;28;20038;-52
2023/03/28 06:05:11;;;;;;;18.63;7.17;;;-0.20;99.90;;;;;;5055341;28;20031;-48
2023/03/28 06:07:38;;;;;;;15.80;6.40;;;-0.20;99.90;;;;;;5055328;28;20037;-51
2023/03/28 06:10:07;;;;;;;14.07;6.50;;;-0.10;99.90;;;;;;5055307;28;20052;-48
2023/03/28 06:12:34;;;;;;;18.10;6.10;;;0.00;99.90;;;;;;5055451;28;20397;-47
2023/03/28 06:15:01;;;;;;;23.03;6.53;;;0.10;99.90;;;;;;5055130;28;20040;-46
2023/03/28 06:17:31;;;;;;;15.07;6.53;;;0.10;99.90;;;;;;5055105;28;20052;-53
2023/03/28 06:19:58;;;;;;;17.37;6.33;;;0.30;99.90;;;;;;5055082;28;20021;-53
2023/03/28 06:22:25;;;;;;;16.70;5.70;;;0.30;99.90;;;;;;5055256;28;20029;-52
2023/03/28 06:24:57;;;;;;;16.43;5.73;;;0.40;99.90;;;;;;5054974;28;20488;-50
2023/03/28 06:27:26;;;;;;;18.60;5.60;;;0.50;99.90;;;;;;5055123;28;20493;-47
2023/03/28 06:29:52;;;;;;;11.40;4.10;;;0.60;99.90;;;;;;5054984;28;20439;-48
2023/03/28 06:32:18;;;;;;;18.27;5.43;;;0.60;99.90;;;;;;5055022;28;20040;-49
2023/03/28 06:34:45;;;;;;;18.30;5.90;;;0.70;99.90;;;;;;5054937;28;20111;-50
2023/03/28 06:37:11;;;;;;;15.70;5.90;;;0.80;99.90;;;;;;5054888;28;20033;-49
2023/03/28 06:39:55;;;;;;;16.57;5.03;;;0.90;99.90;;;;;;5054891;28;20034;-45
2023/03/28 06:42:20;;;;;;;17.33;5.17;;;1.30;99.90;;;;;;5072993;28;20017;-45
2023/03/28 06:45:05;;;;;;;12.00;3.97;;;2.00;99.90;;;;;;5072651;28;20044;-46
2023/03/28 06:47:38;;;;;;;12.37;4.50;;;2.90;99.90;;;;;;5072668;28;20446;-50
2023/03/28 06:50:06;;;;;;;9.47;4.03;;;3.40;99.90;;;;;;5054589;28;20056;-50
2023/03/28 06:52:52;;;;;;;10.50;4.50;;;3.80;99.90;;;;;;5072153;28;20040;-46
2023/03/28 06:55:18;;;;;;;13.93;4.93;;;3.70;99.90;;;;;;5054434;28;20039;-51
2023/03/28 06:57:43;;;;;;;11.87;4.17;;;3.80;99.90;;;;;;5072279;28;20082;-51
2023/03/28 07:00:19;;;;;;;10.17;4.20;;;4.00;99.90;;;;;;5054236;28;20029;-49
2023/03/28 07:03:03;;;;;;;16.03;7.03;;;4.20;99.90;;;;;;5072355;28;20508;-48
2023/03/28 07:05:30;;;;;;;11.83;4.70;;;4.00;99.90;;;;;;5054333;28;20107;-49
2023/03/28 07:07:56;;;;;;;16.37;5.33;;;4.20;99.90;;;;;;5054102;28;20033;-50
2023/03/28 07:10:22;;;;;;;13.77;4.87;;;4.20;99.90;;;;;;5054342;28;20028;-49
2023/03/28 07:12:48;;;;;;;17.67;5.00;;;4.20;99.90;;;;;;5072290;28;20566;-50
2023/03/28 07:15:14;;;;;;;13.07;4.67;;;4.20;99.90;;;;;;5053944;28;20029;-49
2023/03/28 07:17:40;;;;;;;12.03;4.37;;;4.50;99.90;;;;;;5054098;28;20553;-49
2023/03/28 07:20:06;;;;;;;8.80;4.10;;;4.70;99.90;;;;;;5054124;28;20120;-50
2023/03/28 07:22:32;;;;;;;10.33;4.80;;;4.90;99.90;;;;;;5054217;28;20115;-48
2023/03/28 07:24:58;;;;;;;13.57;4.63;;;5.10;99.90;;;;;;5071955;28;20115;-50
2023/03/28 07:27:24;;;;;;;14.10;4.50;;;5.20;99.90;;;;;;5053750;28;20115;-47
2023/03/28 07:29:50;;;;;;;14.27;4.47;;;5.40;99.90;;;;;;5053950;28;20033;-50
2023/03/28 07:32:16;;;;;;;17.87;4.90;;;5.70;99.90;;;;;;5053955;28;20085;-51
2023/03/28 07:34:44;;;;;;;19.67;5.00;;;6.10;99.90;;;;;;5053741;28;20056;-48
2023/03/28 07:37:16;;;;;;;16.23;5.07;;;6.30;99.90;;;;;;5053594;28;20500;-49
2023/03/28 07:40:04;;;;;;;12.93;4.50;;;6.40;99.90;;;;;;5053673;28;20031;-51
2023/03/28 07:42:29;;;;;;;12.27;4.43;;;6.60;99.90;;;;;;5053835;28;20077;-51
2023/03/28 07:44:55;;;;;;;13.07;4.83;;;6.70;99.90;;;;;;5053531;28;20435;-52
2023/03/28 07:47:21;;;;;;;13.87;4.37;;;7.10;99.90;;;;;;5071457;28;20028;-50
2023/03/28 07:49:47;;;;;;;12.43;4.60;;;7.50;99.90;;;;;;5053671;28;20054;-52
2023/03/28 07:52:13;;;;;;;12.60;4.50;;;7.80;99.90;;;;;;5053636;28;20517;-51
2023/03/28 07:54:39;;;;;;;13.17;4.30;;;7.70;99.90;;;;;;5053300;28;20037;-52
2023/03/28 07:57:06;;;;;;;12.87;5.23;;;7.70;99.90;;;;;;5053275;28;20044;-47
2023/03/28 07:59:42;;;;;;;10.43;4.13;;;7.70;99.90;;;;;;5053224;28;20037;-51
2023/03/28 08:02:11;;;;;;;12.70;5.03;;;7.80;99.90;;;;;;5071558;28;20177;-53
2023/03/28 08:04:37;;;;;;;13.57;4.70;;;7.90;99.90;;;;;;5053280;28;20439;-50
2023/03/28 08:07:06;;;;;;;20.50;5.67;;;7.80;99.90;;;;;;5070905;28;20043;-49
2023/03/28 08:09:33;;;;;;;13.33;4.40;;;7.90;99.90;;;;;;5053147;28;20123;-49
2023/03/28 08:12:19;;;;;;;18.37;5.17;;;7.70;99.90;;;;;;5070770;28;20028;-49
2023/03/28 08:14:46;;;;;;;13.50;4.70;;;7.60;99.90;;;;;;5052415;28;20025;-52
2023/03/28 08:17:12;;;;;;;13.60;4.27;;;7.50;99.90;;;;;;5052744;28;20047;-53
2023/03/28 08:19:38;;;;;;;15.20;4.83;;;7.30;99.90;;;;;;5052917;28;20024;-54
2023/03/28 08:22:11;;;;;;;15.30;5.03;;;7.30;99.90;;;;;;5071138;28;20036;-52
2023/03/28 08:24:46;;;;;;;13.60;5.60;;;7.20;99.90;;;;;;5052723;28;20051;-53
2023/03/28 08:27:17;;;;;;;16.20;5.10;;;7.10;99.90;;;;;;5052794;28;20618;-53
2023/03/28 08:29:46;;;;;;;12.47;4.83;;;7.10;99.90;;;;;;5052718;28;20460;-53
2023/03/28 08:32:13;;;;;;;16.20;5.00;;;7.00;99.90;;;;;;5052929;28;20090;-48
2023/03/28 08:34:39;;;;;;;14.57;4.63;;;7.00;99.90;;;;;;5052739;28;20397;-53
2023/03/28 08:37:12;;;;;;;16.00;5.23;;;7.00;99.90;;;;;;5052608;28;20429;-51
2023/03/28 08:39:41;;;;;;;11.97;4.37;;;7.10;99.90;;;;;;5052678;28;20080;-49
2023/03/28 08:42:14;;;;;;;13.67;4.53;;;7.50;99.90;;;;;;5052775;28;20021;-51
2023/03/28 08:44:58;;;;;;;13.90;4.40;;;7.60;99.90;;;;;;5052509;28;20033;-51
2023/03/28 08:47:32;;;;;;;15.17;4.83;;;7.60;99.90;;;;;;5052632;28;20577;-51
2023/03/28 08:50:15;;;;;;;13.77;4.80;;;7.80;99.90;;;;;;5052590;28;20036;-53
2023/03/28 08:52:42;;;;;;;16.17;4.93;;;7.80;99.90;;;;;;5052641;28;20119;-51
2023/03/28 08:55:20;;;;;;;12.67;4.70;;;8.00;99.90;;;;;;5052399;28;20504;-49
2023/03/28 08:57:52;;;;;;;13.80;4.57;;;8.00;99.90;;;;;;5052354;28;20029;-52
2023/03/28 09:00:28;;;;;;;13.60;5.03;;;8.20;99.90;;;;;;5052281;28;20370;-51
2023/03/28 09:02:54;;;;;;;17.03;5.17;;;8.30;99.90;;;;;;5070677;28;20021;-50
2023/03/28 09:05:45;;;;;;;13.87;4.87;;;8.40;99.90;;;;;;5052460;28;20028;-51
2023/03/28 09:08:40;;;;;;;14.07;4.67;;;8.40;99.90;;;;;;5052245;28;20123;-48
2023/03/28 09:11:33;;;;;;;9.77;4.27;;;8.50;99.90;;;;;;5070300;28;20104;-47
2023/03/28 09:14:43;;;;;;;17.93;4.97;;;8.60;99.90;;;;;;5052217;28;20035;-50
2023/03/28 09:17:27;;;;;;;10.83;3.67;;;8.70;99.90;;;;;;5052154;28;20515;-51
2023/03/28 09:20:20;;;;;;;12.67;4.10;;;8.90;99.90;;;;;;5070091;28;20029;-51
2023/03/28 09:24:11;;;;;;;7.73;2.40;;;9.20;99.90;;;;;;5070432;28;20052;-47
2023/03/28 09:26:44;;;;;;;11.37;2.93;;;9.60;98.70;;;;;;5028451;28;20052;-49
2023/03/28 09:29:23;;;;;;;8.73;2.77;;;9.60;99.10;;;;;;5015445;28;20037;-48
2023/03/28 09:31:55;;;;;;;12.83;3.03;;;9.60;99.00;;;;;;5050882;28;20068;-49
2023/03/28 09:34:26;;;;;;;15.13;3.13;;;9.40;98.80;;;;;;5056190;28;20035;-49
2023/03/28 09:37:04;;;;;;;11.47;2.83;;;9.50;98.80;;;;;;5056283;28;20052;-50
2023/03/28 09:39:36;;;;;;;9.23;2.60;;;9.10;99.80;;;;;;5056358;28;20028;-52
2023/03/28 09:42:17;;;;;;;9.03;2.50;;;9.00;99.10;;;;;;5056530;28;20021;-49
2023/03/28 09:45:01;;;;;;;7.77;1.63;;;9.00;99.40;;;;;;5074200;28;20107;-48
2023/03/28 09:47:46;;;;;;;5.93;1.63;;;9.20;96.70;;;;;;5074228;28;20121;-50
2023/03/28 09:50:16;;;;;;;10.97;2.20;;;10.00;94.60;;;;;;5056219;28;20039;-50
2023/03/28 09:52:48;;;;;;;10.03;2.47;;;10.30;93.70;;;;;;5056308;28;20028;-53
2023/03/28 09:55:29;;;;;;;9.75;2.00;;;10.10;95.50;;;;;;5056078;28;20040;-52
2023/03/28 09:58:04;;;;;;;8.97;2.37;;;9.90;94.80;;;;;;5055958;28;20579;-52
2023/03/28 10:00:35;;;;;;;7.20;1.93;;;9.40;96.30;;;;;;5073939;28;20048;-52
2023/03/28 10:03:31;;;;;;;6.50;1.37;;;9.40;96.80;;;;;;5073895;28;20062;-50
2023/03/28 10:05:59;;;;;;;8.20;1.70;;;9.80;95.40;;;;;;5056005;28;20029;-49
2023/03/28 10:08:39;;;;;;;7.03;1.60;;;10.30;92.90;;;;;;5055755;28;20024;-51
2023/03/28 10:11:53;;;;;;;13.48;3.25;;;10.30;91.50;;;;;;5070596;28;20032;-52
2023/03/28 10:14:30;;;;;;;4.20;1.30;;;10.40;92.80;;;;;;5055645;28;20496;-52
2023/03/28 10:17:04;;;;;;;5.72;1.45;;;10.70;90.90;;;;;;5055549;28;20032;-53
2023/03/28 10:19:44;;;;;;;7.45;1.10;;;10.80;90.90;;;;;;5055688;28;20029;-50
2023/03/28 10:22:26;;;;;;;5.28;1.10;;;11.50;86.70;;;;;;5055738;28;20542;-50
2023/03/28 10:24:54;;;;;;;5.00;1.20;;;11.90;84.70;;;;;;5055578;28;20020;-52
2023/03/28 10:27:25;;;;;;;4.32;1.23;;;11.80;82.90;;;;;;5055304;28;20127;-49
2023/03/28 10:29:54;;;;;;;4.43;1.00;;;11.70;83.00;;;;;;5055511;28;20574;-51
2023/03/28 10:32:25;;;;;;;;;;;11.70;80.90;;;;;;5056093;28;20028;-49
2023/03/28 10:35:29;;;;;;;3.17;0.77;;;11.70;81.10;;;;;;5065667;28;19912;-50
2023/03/28 10:38:17;;;;;;;4.20;1.10;;;11.70;75.80;;;;;;5054752;28;20120;-48
2023/03/28 10:41:11;;;;;;;4.57;0.90;;;11.80;76.40;;;;;;5055190;28;20035;-50
2023/03/28 10:43:53;;;;;;;3.45;0.90;;;11.80;73.30;;;;;;5054936;28;20029;-51
2023/03/28 10:46:35;;;;;;;4.00;1.00;;;11.90;76.40;;;;;;5054971;28;20063;-51
2023/03/28 10:49:20;;;;;;;4.85;1.10;;;11.80;71.50;;;;;;5072930;28;20047;-51
2023/03/28 10:51:56;;;;;;;3.47;0.82;;;11.90;72.30;;;;;;5055136;28;20032;-51
2023/03/28 10:54:42;;;;;;;5.20;1.10;;;12.10;71.80;;;;;;5054749;28;20115;-53
2023/03/28 10:57:45;;;;;;;5.10;1.90;;;12.30;71.90;;;;;;5054806;28;20090;-53
2023/03/28 11:00:18;;;;;;;4.85;1.15;;;12.10;72.50;;;;;;5054718;28;20044;-52
2023/03/28 11:03:08;;;;;;;5.28;0.82;;;12.00;72.90;;;;;;5054687;28;20021;-53
2023/03/28 11:05:59;;;;;;;6.65;1.20;;;12.00;73.10;;;;;;5054519;28;20044;-52
2023/03/28 11:08:48;;;;;;;6.70;1.50;;;12.20;70.40;;;;;;5054339;28;20552;-49
2023/03/28 11:11:28;;;;;;;4.93;0.90;;;11.80;68.30;;;;;;5054387;28;20028;-53
2023/03/28 11:14:18;;;;;;;5.60;1.08;;;11.80;70.40;;;;;;5054388;28;20086;-53
2023/03/28 11:17:05;;;;;;;4.68;1.13;;;11.70;72.30;;;;;;5054038;28;20508;-52
2023/03/28 11:20:16;;;;;;;4.80;1.02;;;11.60;73.60;;;;;;5054441;28;20138;-51
2023/03/28 11:22:59;;;;;;;5.70;1.10;;;11.50;71.00;;;;;;5054327;28;20051;-51
2023/03/28 11:25:43;;;;;;;5.68;1.45;;;11.30;71.80;;;;;;5054423;28;20059;-53
2023/03/28 11:28:27;;;;;;;5.15;1.60;;;11.40;72.90;;;;;;5072156;28;20074;-51
2023/03/28 11:31:02;;;;;;;8.70;1.70;;;11.40;75.30;;;;;;5054005;28;20040;-52
2023/03/28 11:34:03;;;;;;;7.72;1.30;;;11.30;74.60;;;;;;5053866;28;20239;-52
2023/03/28 11:36:58;;;;;;;5.65;1.23;;;11.50;73.20;;;;;;5053649;28;20424;-48
2023/03/28 11:39:33;;;;;;;6.07;1.60;;;11.70;72.90;;;;;;5053713;28;20431;-53
2023/03/28 11:42:10;;;;;;;6.55;1.50;;;12.00;70.70;;;;;;5053866;28;20028;-50
2023/03/28 11:45:06;;;;;;;7.22;1.77;;;11.20;73.50;;;;;;5053570;28;20021;-50
2023/03/28 11:47:50;;;;;;;5.45;1.40;;;11.00;75.70;;;;;;5053566;28;20392;-52
2023/03/28 11:50:22;;;;;;;9.02;1.88;;;10.70;76.70;;;;;;5052832;28;20032;-51
2023/03/28 11:53:06;;;;;;;7.25;2.10;;;10.80;77.70;;;;;;5053568;28;20039;-53
2023/03/28 11:55:48;;;;;;;8.10;1.40;;;10.80;76.40;;;;;;5053324;28;20036;-53
2023/03/28 11:58:46;;;;;;;6.43;1.43;;;10.60;75.30;;;;;;5071034;28;20044;-50
2023/03/28 12:01:20;;;;;;;7.10;1.60;;;10.10;75.70;;;;;;5071150;28;20112;-52
2023/03/28 12:04:06;;;;;;;6.47;1.60;;;10.00;76.70;;;;;;5071145;28;20507;-50
2023/03/28 12:06:57;;;;;;;7.67;1.57;;;9.80;77.80;;;;;;5053046;28;20046;-52
2023/03/28 12:09:27;;;;;;;8.73;1.60;;;9.80;76.00;;;;;;5053230;28;20361;-50
2023/03/28 12:12:11;;;;;;;9.37;1.87;;;9.70;77.60;;;;;;5053295;28;20485;-51
2023/03/28 12:15:01;;;;;;;8.90;1.73;;;9.80;76.70;;;;;;5052967;28;20400;-54
2023/03/28 12:17:45;;;;;;;6.03;1.23;;;9.90;77.80;;;;;;5052763;28;20036;-51
2023/03/28 12:20:30;;;;;;;5.00;1.20;;;10.10;77.60;;;;;;5052962;28;20621;-52
2023/03/28 12:23:08;;;;;;;5.83;1.50;;;10.40;76.90;;;;;;5070989;28;20493;-52
2023/03/28 12:26:02;;;;;;;5.37;1.50;;;10.70;76.90;;;;;;5059877;28;20542;-48
2023/03/28 12:28:37;;;;;;;5.13;1.53;;;10.90;74.30;;;;;;5052676;28;20036;-53
2023/03/28 12:31:09;;;;;;;8.63;1.30;;;11.10;78.30;;;;;;5052838;28;20524;-52
2023/03/28 12:34:07;;;;;;;8.27;2.03;;;11.20;74.60;;;;;;5052561;28;20040;-48
2023/03/28 12:37:18;;;;;;;4.33;1.50;;;11.20;73.30;;;;;;5055634;28;20051;-47
2023/03/28 12:39:55;;;;;;;6.77;1.70;;;11.20;72.10;;;;;;5052872;28;20025;-48
2023/03/28 12:42:27;;;;;;;4.60;1.40;;;11.20;70.00;;;;;;5070910;28;20021;-52
2023/03/28 12:45:02;;;;;;;4.07;1.17;;;11.20;69.90;;;;;;5052474;28;20086;-48
2023/03/28 12:47:35;;;;;;;5.57;1.57;;;11.00;70.00;;;;;;5052558;28;20032;-47
2023/03/28 12:50:11;;;;;;;5.67;1.40;;;11.10;70.30;;;;;;5052607;28;20029;-50
2023/03/28 12:52:40;;;;;;;6.67;1.40;;;11.20;71.40;;;;;;5052546;28;20037;-51
2023/03/28 12:55:23;;;;;;;5.60;1.87;;;11.50;69.00;;;;;;5052422;28;20059;-50
2023/03/28 12:57:51;;;;;;;4.60;1.10;;;11.30;69.70;;;;;;5052341;28;20055;-49
2023/03/28 13:01:15;;;;;;;4.90;0.90;;;11.20;69.20;;;;;;5083365;22;20044;-47
2023/03/28 13:04:17;;;;;;;14.90;5.90;;;11.00;69.80;;;;;;5043984;28;20497;-48
2023/03/28 13:07:09;;;;;;;2.10;0.97;;;10.90;71.50;;;;;;5052172;28;20032;-47
2023/03/28 13:09:44;;;;;;;5.17;1.10;;;11.00;71.80;;;;;;5070303;28;20576;-47
2023/03/28 13:12:24;;;;;;;6.97;1.60;;;11.00;73.50;;;;;;5052448;28;20450;-51
2023/03/28 13:15:19;;;;;;;5.87;1.20;;;11.10;69.20;;;;;;5052194;28;20463;-48
2023/03/28 13:18:05;;;;;;;2.73;1.00;;;10.80;69.80;;;;;;5050865;28;20040;-47
2023/03/28 13:20:31;;;;;;;3.57;1.27;;;10.80;69.40;;;;;;5069779;28;20036;-49
2023/03/28 13:23:01;;;;;;;2.73;1.00;;;10.70;69.80;;;;;;5070292;28;20025;-49
2023/03/28 13:25:31;;;;;;;5.67;1.20;;;10.70;70.80;;;;;;5070161;28;20457;-48